createdAt,value
2022-12-09T00:00:07.570Z,4.50
2022-12-09T00:02:34.708Z,4.78
2022-12-09T00:05:02.070Z,4.25
2022-12-09T00:07:29.031Z,5.80
2022-12-09T00:09:55.785Z,6.32
2022-12-09T00:12:22.449Z,7.72
2022-12-09T00:14:49.215Z,7.78
2022-12-09T00:17:16.093Z,5.00
2022-12-09T00:19:42.829Z,4.80
2022-12-09T00:22:09.704Z,6.53
2022-12-09T00:24:36.380Z,4.70
2022-12-09T00:27:03.296Z,6.28
2022-12-09T00:29:30.221Z,4.15
2022-12-09T00:31:56.975Z,5.03
2022-12-09T00:34:24.213Z,5.88
2022-12-09T00:36:51.008Z,7.10
2022-12-09T00:39:18.019Z,5.80
2022-12-09T00:41:44.717Z,5.32
2022-12-09T00:44:11.913Z,5.13
2022-12-09T00:46:38.568Z,4.88
2022-12-09T00:49:05.539Z,6.10
2022-12-09T00:51:32.477Z,5.22
2022-12-09T00:53:59.244Z,5.97
2022-12-09T00:56:31.100Z,4.60
2022-12-09T00:58:59.885Z,4.57
2022-12-09T01:01:27.690Z,4.55
2022-12-09T01:03:54.614Z,6.20
2022-12-09T01:06:24.368Z,5.50
2022-12-09T01:08:52.146Z,5.70
2022-12-09T01:11:22.525Z,6.03
2022-12-09T01:13:50.059Z,5.07
2022-12-09T01:16:23.073Z,6.47
2022-12-09T01:18:50.764Z,4.95
2022-12-09T01:21:18.262Z,5.47
2022-12-09T01:23:45.363Z,6.15
2022-12-09T01:26:12.309Z,6.95
2022-12-09T01:28:40.183Z,6.38
2022-12-09T01:31:07.075Z,5.80
2022-12-09T01:33:34.173Z,6.45
2022-12-09T01:36:03.622Z,6.05
2022-12-09T01:38:30.644Z,4.28
2022-12-09T01:40:57.238Z,4.88
2022-12-09T01:43:23.837Z,6.70
2022-12-09T01:45:50.904Z,5.97
2022-12-09T01:48:20.930Z,6.80
2022-12-09T01:50:59.576Z,6.78
2022-12-09T01:53:36.146Z,5.68
2022-12-09T01:56:07.670Z,4.32
2022-12-09T01:58:35.234Z,5.53
2022-12-09T02:01:02.138Z,5.03
2022-12-09T02:03:28.937Z,5.55
2022-12-09T02:05:56.167Z,7.03
2022-12-09T02:08:23.119Z,7.13
2022-12-09T02:11:08.451Z,5.20
2022-12-09T02:16:23.635Z,4.95
2022-12-09T02:19:12.072Z,6.43
2022-12-09T02:21:53.891Z,5.32
2022-12-09T02:24:41.350Z,6.30
2022-12-09T02:27:15.283Z,4.57
2022-12-09T02:30:00.201Z,5.95
2022-12-09T02:33:04.552Z,5.18
2022-12-09T02:36:13.553Z,5.55
2022-12-09T02:38:42.502Z,4.63
2022-12-09T02:41:26.323Z,3.42
2022-12-09T02:44:05.664Z,4.68
2022-12-09T02:46:36.288Z,5.55
2022-12-09T02:49:04.230Z,5.38
2022-12-09T02:51:35.538Z,4.63
2022-12-09T02:54:09.370Z,6.38
2022-12-09T02:56:37.314Z,4.35
2022-12-09T02:59:04.388Z,4.32
2022-12-09T03:01:52.408Z,2.75
2022-12-09T03:04:22.768Z,6.07
2022-12-09T03:06:55.432Z,3.85
2022-12-09T03:09:35.027Z,3.25
2022-12-09T03:12:07.223Z,4.65
2022-12-09T03:14:45.525Z,4.25
2022-12-09T03:17:20.193Z,3.13
2022-12-09T03:20:02.916Z,3.15
2022-12-09T03:22:34.359Z,2.35
2022-12-09T03:25:10.392Z,3.00
2022-12-09T03:27:42.914Z,2.60
2022-12-09T03:30:11.490Z,2.00
2022-12-09T03:32:41.287Z,3.85
2022-12-09T03:35:29.853Z,4.10
2022-12-09T03:37:57.734Z,2.83
2022-12-09T03:40:28.364Z,3.30
2022-12-09T03:43:00.775Z,2.80
2022-12-09T03:45:28.326Z,3.80
2022-12-09T03:47:56.293Z,2.38
2022-12-09T03:50:27.236Z,2.70
2022-12-09T03:53:19.866Z,4.47
2022-12-09T03:55:54.354Z,4.95
2022-12-09T03:58:21.409Z,2.70
2022-12-09T04:00:49.315Z,2.47
2022-12-09T04:03:18.812Z,3.35
2022-12-09T04:05:45.696Z,3.00
2022-12-09T04:08:12.372Z,2.08
2022-12-09T04:10:39.515Z,2.63
2022-12-09T04:13:06.152Z,1.83
2022-12-09T04:15:32.950Z,2.45
2022-12-09T04:17:59.804Z,2.33
2022-12-09T04:20:26.846Z,2.50
2022-12-09T04:22:53.835Z,2.25
2022-12-09T04:25:20.416Z,3.47
2022-12-09T04:27:46.954Z,3.42
2022-12-09T04:30:14.039Z,1.55
2022-12-09T04:32:41.199Z,1.98
2022-12-09T04:35:08.355Z,2.63
2022-12-09T04:37:37.496Z,3.17
2022-12-09T04:40:08.233Z,1.95
2022-12-09T04:42:35.471Z,2.03
2022-12-09T04:45:02.361Z,3.38
2022-12-09T04:47:29.505Z,2.05
2022-12-09T04:49:56.413Z,2.00
2022-12-09T04:52:23.456Z,2.33
2022-12-09T04:54:51.061Z,1.73
2022-12-09T04:57:18.822Z,2.22
2022-12-09T04:59:45.813Z,2.28
2022-12-09T05:02:12.801Z,2.60
2022-12-09T05:04:40.228Z,1.45
2022-12-09T05:07:07.335Z,2.22
2022-12-09T05:09:34.547Z,2.20
2022-12-09T05:12:01.345Z,1.60
2022-12-09T05:14:28.635Z,2.40
2022-12-09T05:16:55.425Z,2.75
2022-12-09T05:19:22.679Z,2.65
2022-12-09T05:21:49.721Z,3.15
2022-12-09T05:24:16.703Z,2.25
2022-12-09T05:26:43.487Z,2.33
2022-12-09T05:29:10.472Z,3.58
2022-12-09T05:31:37.730Z,2.65
2022-12-09T05:34:04.844Z,2.53
2022-12-09T05:36:32.336Z,2.42
2022-12-09T05:38:59.210Z,3.38
2022-12-09T05:41:26.200Z,3.28
2022-12-09T05:43:53.362Z,3.35
2022-12-09T05:46:21.439Z,4.30
2022-12-09T05:48:48.492Z,3.53
2022-12-09T05:51:26.564Z,5.85
2022-12-09T05:53:54.187Z,4.78
2022-12-09T05:56:23.406Z,4.10
2022-12-09T05:58:50.990Z,4.43
2022-12-09T06:01:18.783Z,3.70
2022-12-09T06:03:50.116Z,3.08
2022-12-09T06:06:18.960Z,4.82
2022-12-09T06:08:46.536Z,3.92
2022-12-09T06:11:19.775Z,3.00
2022-12-09T06:13:48.437Z,3.90
2022-12-09T06:16:20.001Z,5.35
2022-12-09T06:18:47.872Z,4.82
2022-12-09T06:21:17.020Z,3.45
2022-12-09T06:23:44.299Z,4.63
2022-12-09T06:26:17.171Z,3.08
2022-12-09T06:28:44.123Z,3.75
2022-12-09T06:31:10.979Z,4.43
2022-12-09T06:33:54.167Z,4.78
2022-12-09T06:36:22.920Z,3.00
2022-12-09T06:38:50.148Z,3.47
2022-12-09T06:41:17.164Z,3.92
2022-12-09T06:43:44.018Z,3.63
2022-12-09T06:46:16.682Z,4.20
2022-12-09T06:48:43.968Z,3.38
2022-12-09T06:51:11.283Z,4.20
2022-12-09T06:53:38.483Z,4.63
2022-12-09T06:56:11.737Z,3.60
2022-12-09T06:58:40.469Z,5.53
2022-12-09T07:01:13.811Z,3.50
2022-12-09T07:03:49.272Z,3.88
2022-12-09T07:06:38.327Z,5.45
2022-12-09T07:09:14.911Z,3.05
2022-12-09T07:11:48.228Z,4.35
2022-12-09T07:14:16.872Z,4.63
2022-12-09T07:16:44.542Z,5.43
2022-12-09T07:19:20.628Z,5.38
2022-12-09T07:21:49.447Z,4.20
2022-12-09T07:24:18.472Z,5.40
2022-12-09T07:26:45.816Z,4.40
2022-12-09T07:29:12.853Z,3.55
2022-12-09T07:31:39.781Z,6.68
2022-12-09T07:34:06.820Z,3.58
2022-12-09T07:36:35.860Z,3.47
2022-12-09T07:39:10.293Z,4.22
2022-12-09T07:41:37.427Z,4.82
2022-12-09T07:44:05.000Z,5.82
2022-12-09T07:46:32.345Z,6.55
2022-12-09T07:49:01.213Z,6.65
2022-12-09T07:51:29.546Z,3.30
2022-12-09T07:53:57.140Z,4.75
2022-12-09T07:56:24.883Z,4.07
2022-12-09T07:58:53.705Z,4.15
2022-12-09T08:01:26.955Z,5.00
2022-12-09T08:03:54.767Z,5.88
2022-12-09T08:06:25.702Z,6.53
2022-12-09T08:08:53.867Z,4.10
2022-12-09T08:11:26.748Z,7.30
2022-12-09T08:13:57.053Z,5.85
2022-12-09T08:16:24.402Z,7.68
2022-12-09T08:18:52.753Z,6.28
2022-12-09T08:21:25.591Z,6.47
2022-12-09T08:23:53.154Z,4.68
2022-12-09T08:26:22.373Z,4.68
2022-12-09T08:28:49.553Z,5.35
2022-12-09T08:31:19.666Z,5.95
2022-12-09T08:33:46.782Z,5.63
2022-12-09T08:36:16.624Z,6.07
2022-12-09T08:38:44.205Z,5.47
2022-12-09T08:41:17.555Z,5.43
2022-12-09T08:43:45.163Z,5.28
2022-12-09T08:46:13.637Z,5.47
2022-12-09T08:48:42.482Z,7.25
2022-12-09T08:51:11.397Z,4.70
2022-12-09T08:53:42.203Z,6.05
2022-12-09T08:56:13.786Z,5.25
2022-12-09T08:58:41.547Z,5.80
2022-12-09T09:01:15.664Z,7.20
2022-12-09T09:03:43.129Z,5.65
2022-12-09T09:06:11.458Z,7.18
2022-12-09T09:08:39.371Z,5.30
2022-12-09T09:11:16.052Z,5.95
2022-12-09T09:13:45.113Z,7.85
2022-12-09T09:16:15.985Z,6.38
2022-12-09T09:18:43.982Z,7.63
2022-12-09T09:21:13.951Z,6.65
2022-12-09T09:23:41.434Z,7.68
2022-12-09T09:26:20.087Z,7.53
2022-12-09T09:28:48.047Z,6.07
2022-12-09T09:31:17.834Z,5.15
2022-12-09T09:33:46.150Z,6.97
2022-12-09T09:36:21.859Z,7.05
2022-12-09T09:38:50.005Z,5.53
2022-12-09T09:41:35.576Z,6.03
2022-12-09T09:44:03.742Z,8.10
2022-12-09T09:46:39.841Z,6.13
2022-12-09T09:49:11.413Z,6.68
2022-12-09T09:51:38.574Z,7.00
2022-12-09T09:54:09.019Z,7.35
2022-12-09T09:56:41.138Z,5.35
2022-12-09T09:59:34.205Z,6.38
2022-12-09T10:02:16.435Z,6.22
2022-12-09T10:04:52.830Z,5.72
2022-12-09T10:07:38.590Z,4.97
2022-12-09T10:10:20.811Z,5.32
2022-12-09T10:13:12.316Z,6.00
2022-12-09T10:16:14.437Z,6.97
2022-12-09T10:19:05.953Z,6.90
2022-12-09T10:21:39.631Z,6.03
2022-12-09T10:24:21.172Z,4.88
2022-12-09T10:27:12.642Z,5.45
2022-12-09T10:30:02.751Z,5.43
2022-12-09T10:32:32.513Z,5.30
2022-12-09T10:35:00.190Z,4.55
2022-12-09T10:37:34.017Z,4.97
2022-12-09T10:40:10.567Z,5.38
2022-12-09T10:43:04.890Z,4.28
2022-12-09T10:46:00.110Z,4.00
2022-12-09T10:48:34.447Z,5.38
2022-12-09T10:51:05.941Z,6.55
2022-12-09T10:53:35.270Z,5.22
2022-12-09T10:56:04.138Z,5.10
2022-12-09T10:58:32.001Z,5.82
2022-12-09T11:01:12.604Z,6.18
2022-12-09T11:03:51.923Z,5.78
2022-12-09T11:06:31.318Z,5.45
2022-12-09T11:09:01.036Z,8.27
2022-12-09T11:11:43.724Z,8.50
2022-12-09T11:14:30.602Z,5.40
2022-12-09T11:17:18.707Z,5.10
2022-12-09T11:19:55.221Z,5.55
2022-12-09T11:22:43.323Z,4.82
2022-12-09T11:25:13.480Z,4.80
2022-12-09T11:27:48.091Z,4.90
2022-12-09T11:30:36.491Z,5.25
2022-12-09T11:33:15.386Z,6.45
2022-12-09T11:38:30.678Z,4.40
2022-12-09T11:41:09.453Z,4.88
2022-12-09T11:43:42.780Z,5.93
2022-12-09T11:46:12.176Z,7.07
2022-12-09T11:48:43.841Z,5.72
2022-12-09T11:51:40.952Z,4.22
2022-12-09T11:54:18.777Z,4.40
2022-12-09T11:56:45.620Z,6.18
2022-12-09T11:59:17.923Z,5.35
2022-12-09T12:01:52.729Z,5.95
2022-12-09T12:04:32.658Z,8.73
2022-12-09T12:07:05.358Z,9.63
2022-12-09T12:09:34.717Z,5.40
2022-12-09T12:12:24.417Z,4.70
2022-12-09T12:14:51.037Z,4.85
2022-12-09T12:17:24.712Z,4.13
2022-12-09T12:19:53.396Z,3.75
2022-12-09T12:22:55.009Z,5.07
2022-12-09T12:25:51.811Z,4.50
2022-12-09T12:28:37.504Z,3.78
2022-12-09T12:31:37.988Z,5.53
2022-12-09T12:34:25.993Z,4.80
2022-12-09T12:37:00.611Z,5.72
2022-12-09T12:39:30.103Z,4.97
2022-12-09T12:42:28.516Z,4.63
2022-12-09T12:45:25.857Z,2.97
2022-12-09T12:48:19.358Z,6.15
2022-12-09T12:50:51.856Z,5.63
2022-12-09T12:56:14.276Z,3.95
2022-12-09T12:58:54.906Z,4.05
2022-12-09T13:01:43.322Z,5.03
2022-12-09T13:04:29.237Z,3.47
2022-12-09T13:07:20.099Z,3.55
2022-12-09T13:10:14.465Z,4.20
2022-12-09T13:12:56.662Z,2.42
2022-12-09T13:15:32.282Z,3.53
2022-12-09T13:18:22.195Z,4.07
2022-12-09T13:20:54.150Z,3.13
2022-12-09T13:23:54.853Z,5.68
2022-12-09T13:26:33.473Z,3.38
2022-12-09T13:29:31.115Z,3.45
2022-12-09T13:34:50.011Z,3.50
2022-12-09T13:37:45.781Z,5.43
2022-12-09T13:40:21.529Z,3.03
2022-12-09T13:43:01.381Z,2.42
2022-12-09T13:45:43.019Z,3.33
2022-12-09T13:48:16.999Z,3.97
2022-12-09T13:50:51.621Z,2.80
2022-12-09T13:53:21.174Z,4.78
2022-12-09T13:56:05.192Z,3.45
2022-12-09T13:58:59.471Z,2.55
2022-12-09T14:01:56.777Z,3.55
2022-12-09T14:04:27.475Z,7.47
2022-12-09T14:07:14.854Z,4.50
2022-12-09T14:09:44.421Z,4.28
2022-12-09T14:12:27.162Z,3.33
2022-12-09T14:15:26.229Z,3.17
2022-12-09T14:18:02.824Z,3.67
2022-12-09T14:20:39.777Z,3.83
2022-12-09T14:23:09.819Z,2.70
2022-12-09T14:25:36.372Z,2.85
2022-12-09T14:28:12.256Z,4.80
2022-12-09T14:31:08.164Z,3.13
2022-12-09T14:33:39.044Z,4.32
2022-12-09T14:36:14.966Z,5.50
2022-12-09T14:39:15.697Z,3.40
2022-12-09T14:41:39.939Z,4.20
2022-12-09T14:44:34.224Z,3.45
2022-12-09T14:47:18.619Z,4.30
2022-12-09T14:49:49.212Z,2.83
2022-12-09T14:52:29.045Z,3.15
2022-12-09T14:54:58.647Z,4.63
2022-12-09T14:57:47.167Z,4.30
2022-12-09T15:00:34.401Z,3.95
2022-12-09T15:03:31.359Z,4.90
2022-12-09T15:06:02.290Z,3.35
2022-12-09T15:08:37.921Z,3.75
2022-12-09T15:11:22.304Z,3.95
2022-12-09T15:13:51.941Z,3.72
2022-12-09T15:16:21.414Z,2.92
2022-12-09T15:18:51.259Z,3.08
2022-12-09T15:21:36.259Z,3.65
2022-12-09T15:24:03.457Z,4.40
2022-12-09T15:26:32.863Z,4.80
2022-12-09T15:29:01.352Z,3.85
2022-12-09T15:31:30.656Z,3.10
2022-12-09T15:34:00.154Z,4.53
2022-12-09T15:36:51.775Z,3.80
2022-12-09T15:39:25.746Z,3.85
2022-12-09T15:42:07.386Z,4.18
2022-12-09T15:44:38.191Z,4.60
2022-12-09T15:47:10.430Z,4.28
2022-12-09T15:52:07.856Z,3.63
2022-12-09T15:54:39.458Z,4.90
2022-12-09T15:57:10.867Z,3.13
2022-12-09T15:59:43.741Z,4.28
2022-12-09T16:02:15.322Z,3.22
2022-12-09T16:04:46.826Z,5.18
2022-12-09T16:07:16.141Z,4.20
2022-12-09T16:10:09.436Z,3.30
2022-12-09T16:12:37.300Z,3.83
2022-12-09T16:15:10.245Z,3.75
2022-12-09T16:17:51.411Z,4.50
2022-12-09T16:20:45.700Z,4.07
2022-12-09T16:23:22.186Z,4.10
2022-12-09T16:25:50.101Z,4.07
2022-12-09T16:28:22.781Z,3.35
2022-12-09T16:30:51.023Z,3.70
2022-12-09T16:33:24.468Z,4.38
2022-12-09T16:36:07.035Z,4.97
2022-12-09T16:38:35.563Z,5.13
2022-12-09T16:41:05.829Z,5.07
2022-12-09T16:43:33.894Z,3.88
2022-12-09T16:46:14.536Z,4.80
2022-12-09T16:48:42.565Z,5.75
2022-12-09T16:51:20.102Z,6.30
2022-12-09T16:53:50.667Z,5.63
2022-12-09T16:56:23.731Z,4.78
2022-12-09T16:58:51.206Z,4.57
2022-12-09T17:01:24.576Z,5.07
2022-12-09T17:04:14.221Z,6.15
2022-12-09T17:06:41.132Z,4.30
2022-12-09T17:09:07.684Z,5.43
2022-12-09T17:11:34.919Z,5.05
2022-12-09T17:14:01.543Z,7.32
2022-12-09T17:16:28.368Z,7.43
2022-12-09T17:18:55.103Z,4.70
2022-12-09T17:21:21.743Z,4.90
2022-12-09T17:23:48.539Z,4.50
2022-12-09T17:26:18.346Z,5.25
2022-12-09T17:28:45.743Z,5.05
2022-12-09T17:31:19.524Z,5.50
2022-12-09T17:33:47.037Z,5.00
2022-12-09T17:36:14.875Z,6.55
2022-12-09T17:38:42.444Z,7.00
2022-12-09T17:41:11.849Z,5.93
2022-12-09T17:43:38.796Z,6.45
2022-12-09T17:46:06.444Z,6.97
2022-12-09T17:48:35.142Z,5.57
2022-12-09T17:51:07.118Z,8.73
2022-12-09T17:53:36.422Z,5.82
2022-12-09T17:56:11.731Z,6.78
2022-12-09T17:58:38.891Z,7.18
2022-12-09T18:01:13.407Z,8.25
2022-12-09T18:03:55.691Z,7.25
2022-12-09T18:06:23.839Z,7.13
2022-12-09T18:08:50.482Z,8.15
2022-12-09T18:11:17.346Z,10.73
2022-12-09T18:13:43.941Z,9.90
2022-12-09T18:16:11.978Z,8.73
2022-12-09T18:18:39.730Z,16.70
2022-12-09T18:21:12.082Z,9.90
2022-12-09T18:23:41.930Z,10.20
2022-12-09T18:26:10.607Z,9.10
2022-12-09T18:28:38.229Z,9.35
2022-12-09T18:31:10.208Z,9.18
2022-12-09T18:33:38.531Z,10.18
2022-12-09T18:36:07.560Z,10.77
2022-12-09T18:38:34.995Z,13.48
2022-12-09T18:41:02.831Z,21.58
2022-12-09T18:43:31.649Z,11.85
2022-12-09T18:46:06.703Z,15.18
2022-12-09T18:48:33.621Z,15.77
2022-12-09T18:51:00.270Z,24.80
2022-12-09T18:53:27.609Z,23.10
2022-12-09T18:55:54.274Z,16.60
2022-12-09T18:58:31.504Z,14.85
2022-12-09T19:01:21.514Z,15.95
2022-12-09T19:03:48.292Z,14.90
2022-12-09T19:06:30.280Z,16.58
2022-12-09T19:08:59.490Z,16.42
2022-12-09T19:11:29.422Z,19.58
2022-12-09T19:13:56.856Z,22.35
2022-12-09T19:16:25.789Z,18.75
2022-12-09T19:18:56.177Z,16.70
2022-12-09T19:21:24.454Z,15.38
2022-12-09T19:23:51.777Z,15.15
2022-12-09T19:26:29.412Z,16.98
2022-12-09T19:28:59.708Z,16.77
2022-12-09T19:31:38.436Z,18.45
2022-12-09T19:36:36.046Z,17.92
2022-12-09T19:39:05.855Z,18.70
2022-12-09T19:41:32.687Z,16.08
2022-12-09T19:44:01.008Z,17.30
2022-12-09T19:46:28.527Z,17.23
2022-12-09T19:48:56.188Z,16.67
2022-12-09T19:51:24.085Z,19.23
2022-12-09T19:53:53.567Z,20.38
2022-12-09T19:56:20.760Z,16.38
2022-12-09T19:58:48.534Z,23.40
2022-12-09T20:01:29.517Z,17.98
2022-12-09T20:04:19.197Z,19.17
2022-12-09T20:06:51.942Z,17.00
2022-12-09T20:09:24.383Z,17.88
2022-12-09T20:14:20.641Z,22.23
2022-12-09T20:16:47.334Z,17.38
2022-12-09T20:19:14.028Z,21.02
2022-12-09T20:21:41.124Z,19.65
2022-12-09T20:24:09.603Z,17.95
2022-12-09T20:26:37.912Z,17.55
2022-12-09T20:29:07.993Z,20.00
2022-12-09T20:31:36.966Z,18.10
2022-12-09T20:34:06.603Z,19.08
2022-12-09T20:36:36.069Z,18.73
2022-12-09T20:39:06.786Z,20.50
2022-12-09T20:41:33.440Z,19.92
2022-12-09T20:44:00.589Z,18.77
2022-12-09T20:46:30.143Z,17.23
2022-12-09T20:48:57.996Z,16.88
2022-12-09T20:51:34.815Z,16.35
2022-12-09T20:54:01.442Z,17.77
2022-12-09T20:56:29.470Z,18.67
2022-12-09T20:58:56.906Z,17.70
2022-12-09T21:01:29.246Z,17.77
2022-12-09T21:03:57.478Z,18.55
2022-12-09T21:06:27.090Z,15.25
2022-12-09T21:08:53.934Z,16.80
2022-12-09T21:11:23.177Z,14.32
2022-12-09T21:13:57.819Z,17.42
2022-12-09T21:16:29.982Z,14.82
2022-12-09T21:18:59.915Z,12.82
2022-12-09T21:21:30.269Z,15.63
2022-12-09T21:23:56.994Z,16.67
2022-12-09T21:26:25.065Z,14.57
2022-12-09T21:28:53.243Z,15.75
2022-12-09T21:31:24.042Z,17.45
2022-12-09T21:33:52.442Z,18.00
2022-12-09T21:36:21.931Z,17.17
2022-12-09T21:38:48.536Z,13.77
2022-12-09T21:41:18.712Z,19.30
2022-12-09T21:43:46.413Z,16.35
2022-12-09T21:46:19.320Z,18.08
2022-12-09T21:48:52.153Z,17.42
2022-12-09T21:51:19.527Z,17.58
2022-12-09T21:53:46.943Z,21.08
2022-12-09T21:56:16.009Z,18.33
2022-12-09T21:58:44.342Z,17.77
2022-12-09T22:01:20.084Z,17.92
2022-12-09T22:03:47.960Z,17.60
2022-12-09T22:06:16.048Z,24.10
2022-12-09T22:08:43.369Z,18.90
2022-12-09T22:11:14.450Z,25.25
2022-12-09T22:13:41.504Z,19.52
2022-12-09T22:16:10.077Z,19.10
2022-12-09T22:18:36.803Z,18.25
2022-12-09T22:21:25.649Z,17.63
2022-12-09T22:23:57.278Z,20.65
2022-12-09T22:26:24.400Z,20.08
2022-12-09T22:28:52.134Z,21.13
2022-12-09T22:31:22.798Z,19.83
2022-12-09T22:33:52.058Z,21.10
2022-12-09T22:36:22.642Z,16.50
2022-12-09T22:38:52.440Z,17.95
2022-12-09T22:41:25.729Z,16.48
2022-12-09T22:43:54.451Z,19.13
2022-12-09T22:46:24.096Z,18.98
2022-12-09T22:48:51.207Z,18.90
2022-12-09T22:51:23.444Z,15.80
2022-12-09T22:53:53.227Z,21.23
2022-12-09T22:56:20.257Z,19.25
2022-12-09T22:58:47.638Z,20.52
2022-12-09T23:01:25.791Z,17.13
2022-12-09T23:03:53.830Z,18.85
2022-12-09T23:06:20.456Z,18.95
2022-12-09T23:08:47.716Z,18.45
2022-12-09T23:11:17.117Z,22.83
2022-12-09T23:13:44.493Z,18.30
2022-12-09T23:16:14.797Z,15.77
2022-12-09T23:18:41.799Z,18.52
2022-12-09T23:21:23.498Z,18.10
2022-12-09T23:23:55.215Z,16.98
2022-12-09T23:26:26.125Z,14.63
2022-12-09T23:28:54.656Z,19.38
2022-12-09T23:31:24.094Z,16.52
2022-12-09T23:33:51.957Z,19.35
2022-12-09T23:36:21.687Z,16.75
2022-12-09T23:38:48.512Z,14.07
2022-12-09T23:41:17.861Z,17.30
2022-12-09T23:43:46.112Z,16.98
2022-12-09T23:46:16.224Z,18.38
2022-12-09T23:48:44.821Z,14.05
2022-12-09T23:51:17.803Z,15.00
2022-12-09T23:53:46.696Z,17.25
2022-12-09T23:56:15.277Z,18.25
2022-12-09T23:58:43.000Z,14.27
